createdAt,value
2019-03-03T00:01:43.916Z,77555.95
2019-03-03T00:04:13.090Z,77548.88
2019-03-03T00:06:42.471Z,77554.94
2019-03-03T00:09:11.673Z,77561.00
2019-03-03T00:11:41.233Z,77554.94
2019-03-03T00:14:10.739Z,77550.89
2019-03-03T00:16:40.100Z,77546.86
2019-03-03T00:19:09.313Z,77554.94
2019-03-03T00:21:38.873Z,77545.84
2019-03-03T00:24:08.619Z,77540.80
2019-03-03T00:26:37.832Z,77532.71
2019-03-03T00:29:06.950Z,77539.78
2019-03-03T00:31:38.426Z,77535.74
2019-03-03T00:34:07.939Z,77534.73
2019-03-03T00:36:55.107Z,77526.65
2019-03-03T00:39:44.269Z,77528.67
2019-03-03T00:42:32.723Z,77527.66
2019-03-03T00:45:09.765Z,77531.70
2019-03-03T00:47:55.095Z,77522.61
2019-03-03T00:50:43.562Z,77524.63
2019-03-03T00:53:19.007Z,77519.58
2019-03-03T00:56:22.587Z,77516.55
2019-03-03T00:59:02.219Z,77503.41
2019-03-03T01:01:49.164Z,77506.45
2019-03-03T01:04:47.131Z,77499.38
2019-03-03T01:07:44.630Z,77506.45
2019-03-03T01:10:38.651Z,77483.20
2019-03-03T01:13:29.522Z,77482.20
2019-03-03T01:16:30.150Z,77486.23
2019-03-03T01:19:21.449Z,77479.16
2019-03-03T01:22:21.948Z,77460.98
2019-03-03T01:24:55.925Z,77461.99
2019-03-03T01:27:26.639Z,77455.93
2019-03-03T01:29:55.815Z,77451.89
2019-03-03T01:32:25.109Z,77455.93
2019-03-03T01:34:54.270Z,77450.88
2019-03-03T01:37:23.852Z,77449.88
2019-03-03T01:39:52.990Z,77443.81
2019-03-03T01:42:22.963Z,77440.78
2019-03-03T01:44:52.150Z,77444.81
2019-03-03T01:47:22.074Z,77437.75
2019-03-03T01:49:51.285Z,77437.75
2019-03-03T01:52:20.770Z,77426.63
2019-03-03T01:54:50.772Z,77419.56
2019-03-03T01:57:19.964Z,77403.40
2019-03-03T01:59:49.851Z,77405.42
2019-03-03T02:02:18.998Z,77393.30
2019-03-03T02:04:48.928Z,77389.25
2019-03-03T02:07:18.443Z,77371.07
2019-03-03T02:09:47.939Z,77378.14
2019-03-03T02:12:17.154Z,77362.98
2019-03-03T02:14:46.297Z,77348.84
2019-03-03T02:17:15.590Z,77352.89
2019-03-03T02:19:44.727Z,77355.92
2019-03-03T02:22:13.968Z,77351.88
2019-03-03T02:24:43.537Z,77344.80
2019-03-03T02:27:13.233Z,77354.91
2019-03-03T02:29:42.544Z,77331.67
2019-03-03T02:32:12.364Z,77333.69
2019-03-03T02:34:41.546Z,77328.64
2019-03-03T02:37:10.691Z,77324.60
2019-03-03T02:39:40.370Z,77322.58
2019-03-03T02:42:09.870Z,77324.60
2019-03-03T02:44:39.006Z,77314.50
2019-03-03T02:47:09.011Z,77314.50
2019-03-03T02:49:38.606Z,77314.50
2019-03-03T02:52:08.116Z,77305.41
2019-03-03T02:54:37.278Z,77314.50
2019-03-03T02:57:06.970Z,77309.45
2019-03-03T02:59:36.183Z,77307.42
2019-03-03T03:02:10.726Z,77307.42
2019-03-03T03:04:39.960Z,77302.38
2019-03-03T03:07:19.515Z,77305.41
2019-03-03T03:10:03.595Z,77296.31
2019-03-03T03:12:54.821Z,77293.28
2019-03-03T03:15:41.575Z,77291.27
2019-03-03T03:18:32.653Z,77288.23
2019-03-03T03:21:21.323Z,77295.30
2019-03-03T03:24:15.718Z,77302.38
2019-03-03T03:26:52.299Z,77300.36
2019-03-03T03:29:27.198Z,77305.41
2019-03-03T03:32:15.278Z,77304.39
2019-03-03T03:35:03.454Z,77320.56
2019-03-03T03:37:38.508Z,77322.58
2019-03-03T03:40:22.871Z,77316.52
2019-03-03T03:43:03.525Z,77307.42
2019-03-03T03:45:45.403Z,77303.39
2019-03-03T03:48:33.489Z,77311.47
2019-03-03T03:51:33.766Z,77315.51
2019-03-03T03:54:22.160Z,77296.31
2019-03-03T03:57:13.401Z,77303.39
2019-03-03T03:59:56.904Z,77309.45
2019-03-03T04:02:57.134Z,77303.39
2019-03-03T04:05:39.550Z,77299.34
2019-03-03T04:08:17.624Z,77297.33
2019-03-03T04:10:59.461Z,77310.45
2019-03-03T04:13:35.627Z,77325.61
2019-03-03T04:16:13.295Z,77332.68
2019-03-03T04:18:57.054Z,77329.66
2019-03-03T04:22:03.514Z,77329.66
2019-03-03T04:24:50.187Z,77337.73
2019-03-03T04:27:31.952Z,77334.70
2019-03-03T04:30:16.016Z,77334.70
2019-03-03T04:33:02.330Z,77330.66
2019-03-03T04:35:50.447Z,77320.56
2019-03-03T04:38:33.078Z,77320.56
2019-03-03T04:41:24.325Z,77298.33
2019-03-03T04:44:01.456Z,77311.47
2019-03-03T04:46:58.384Z,77318.54
2019-03-03T04:49:36.306Z,77316.52
2019-03-03T04:52:22.816Z,77334.70
2019-03-03T04:55:14.619Z,77332.68
2019-03-03T04:58:01.882Z,77325.61
2019-03-03T05:00:55.976Z,77329.66
2019-03-03T05:03:39.807Z,77322.58
2019-03-03T05:06:19.521Z,77321.57
2019-03-03T05:08:56.378Z,77307.42
2019-03-03T05:12:18.042Z,77321.57
2019-03-03T05:14:49.556Z,77323.59
2019-03-03T05:17:35.004Z,77322.58
2019-03-03T05:20:05.003Z,77320.56
2019-03-03T05:22:34.796Z,77316.52
2019-03-03T05:25:04.175Z,77307.42
2019-03-03T05:27:33.730Z,77313.48
2019-03-03T05:30:03.617Z,77308.44
2019-03-03T05:32:33.117Z,77308.44
2019-03-03T05:35:02.626Z,77313.48
2019-03-03T05:37:32.152Z,77318.54
2019-03-03T05:40:01.336Z,77321.57
2019-03-03T05:42:30.519Z,77305.41
2019-03-03T05:45:00.231Z,77312.48
2019-03-03T05:47:29.357Z,77306.42
2019-03-03T05:49:58.939Z,77290.25
2019-03-03T05:52:28.112Z,77300.36
2019-03-03T05:54:57.279Z,77317.53
2019-03-03T05:57:26.755Z,77309.45
2019-03-03T05:59:55.930Z,77314.50
2019-03-03T06:02:25.479Z,77317.53
2019-03-03T06:04:55.034Z,77299.34
2019-03-03T06:07:24.203Z,77299.34
2019-03-03T06:09:53.384Z,77307.42
2019-03-03T06:12:23.311Z,77302.38
2019-03-03T06:14:52.441Z,77293.28
2019-03-03T06:17:21.581Z,77298.33
2019-03-03T06:19:50.852Z,77291.27
2019-03-03T06:22:20.379Z,77287.22
2019-03-03T06:24:49.535Z,77283.18
2019-03-03T06:27:19.435Z,77282.17
2019-03-03T06:29:48.596Z,77287.22
2019-03-03T06:32:17.837Z,77287.22
2019-03-03T06:34:47.262Z,77291.27
2019-03-03T06:37:18.243Z,77297.33
2019-03-03T06:39:49.314Z,77285.20
2019-03-03T06:42:19.085Z,77283.18
2019-03-03T06:44:48.257Z,77284.19
2019-03-03T06:47:17.787Z,77295.30
2019-03-03T06:49:47.294Z,77291.27
2019-03-03T06:52:16.452Z,77286.21
2019-03-03T06:54:45.614Z,77285.20
2019-03-03T06:57:15.128Z,77290.25
2019-03-03T06:59:44.625Z,77287.22
2019-03-03T07:02:14.076Z,77279.14
2019-03-03T07:04:43.565Z,77281.16
2019-03-03T07:07:13.099Z,77279.14
2019-03-03T07:09:42.327Z,77288.23
2019-03-03T07:12:11.849Z,77282.17
2019-03-03T07:14:41.380Z,77283.18
2019-03-03T07:17:10.585Z,77298.33
2019-03-03T07:19:39.804Z,77306.42
2019-03-03T07:22:08.961Z,77312.48
2019-03-03T07:24:38.236Z,77319.55
2019-03-03T07:27:07.857Z,77318.54
2019-03-03T07:29:37.350Z,77321.57
2019-03-03T07:32:07.189Z,77326.63
2019-03-03T07:34:36.674Z,77333.69
2019-03-03T07:37:06.307Z,77332.68
2019-03-03T07:39:35.511Z,77327.63
2019-03-03T07:42:04.817Z,77329.66
2019-03-03T07:44:33.952Z,77325.61
2019-03-03T07:47:03.162Z,77322.58
2019-03-03T07:49:32.683Z,77325.61
2019-03-03T07:52:02.217Z,77323.59
2019-03-03T07:54:31.499Z,77326.63
2019-03-03T07:57:00.726Z,77328.64
2019-03-03T07:59:30.323Z,77323.59
2019-03-03T08:02:00.044Z,77316.52
2019-03-03T08:04:29.223Z,77312.48
2019-03-03T08:06:58.411Z,77302.38
2019-03-03T08:09:28.245Z,77297.33
2019-03-03T08:11:57.760Z,77295.30
2019-03-03T08:14:27.100Z,77276.11
2019-03-03T08:16:56.297Z,77263.98
2019-03-03T08:19:25.470Z,77263.98
2019-03-03T08:21:55.048Z,77259.95
2019-03-03T08:24:24.883Z,77248.84
2019-03-03T08:26:54.077Z,77248.84
2019-03-03T08:29:23.685Z,77250.86
2019-03-03T08:31:53.897Z,77253.89
2019-03-03T08:34:23.125Z,77243.78
2019-03-03T08:36:52.258Z,77239.74
2019-03-03T08:39:21.781Z,77231.66
2019-03-03T08:41:55.815Z,77238.73
2019-03-03T08:44:47.157Z,77240.75
2019-03-03T08:47:53.142Z,77236.71
2019-03-03T08:50:52.336Z,77239.74
2019-03-03T08:53:46.351Z,77235.70
2019-03-03T08:56:31.420Z,77235.70
2019-03-03T08:59:19.239Z,77244.80
2019-03-03T09:01:57.986Z,77234.69
2019-03-03T09:04:44.118Z,77231.66
2019-03-03T09:07:25.495Z,77235.70
2019-03-03T09:10:25.573Z,77243.78
2019-03-03T09:13:11.944Z,77243.78
2019-03-03T09:15:48.660Z,77237.72
2019-03-03T09:18:41.235Z,77234.69
2019-03-03T09:21:24.983Z,77237.72
2019-03-03T09:24:13.145Z,77242.77
2019-03-03T09:27:16.687Z,77241.77
2019-03-03T09:29:57.547Z,77241.77
2019-03-03T09:33:00.931Z,77235.70
2019-03-03T09:35:44.798Z,77235.70
2019-03-03T09:38:27.000Z,77235.70
2019-03-03T09:41:09.829Z,77222.57
2019-03-03T09:43:57.971Z,77218.53
2019-03-03T09:46:46.501Z,77218.53
2019-03-03T09:49:34.698Z,77227.63
2019-03-03T09:52:25.941Z,77222.57
2019-03-03T09:55:17.145Z,77221.56
2019-03-03T09:58:02.212Z,77218.53
2019-03-03T10:00:56.801Z,77212.47
2019-03-03T10:03:58.039Z,77203.38
2019-03-03T10:06:36.216Z,77197.31
2019-03-03T10:09:34.968Z,77193.27
2019-03-03T10:12:13.821Z,77197.31
2019-03-03T10:14:50.032Z,77191.25
2019-03-03T10:17:37.385Z,77189.23
2019-03-03T10:20:20.912Z,77186.20
2019-03-03T10:23:20.655Z,77185.19
2019-03-03T10:26:15.218Z,77177.11
2019-03-03T10:29:12.630Z,77177.11
2019-03-03T10:31:52.759Z,77173.07
2019-03-03T10:34:47.239Z,77183.17
2019-03-03T10:37:25.578Z,77177.11
2019-03-03T10:40:12.026Z,77166.00
2019-03-03T10:43:02.552Z,77166.00
2019-03-03T10:45:54.898Z,77169.03
2019-03-03T10:48:37.004Z,77169.03
2019-03-03T10:51:33.975Z,77167.02
2019-03-03T10:54:40.594Z,77159.94
2019-03-03T10:57:43.711Z,77158.93
2019-03-03T11:00:36.193Z,77143.78
2019-03-03T11:03:30.651Z,77135.70
2019-03-03T11:06:12.344Z,77138.72
2019-03-03T11:09:00.675Z,77131.66
2019-03-03T11:11:53.268Z,77130.64
2019-03-03T11:14:40.779Z,77126.60
2019-03-03T11:17:34.987Z,77118.52
2019-03-03T11:20:23.583Z,77109.43
2019-03-03T11:23:19.258Z,77094.28
2019-03-03T11:26:17.607Z,77072.05
2019-03-03T11:29:01.640Z,77069.02
2019-03-03T11:32:05.767Z,77053.88
2019-03-03T11:34:56.951Z,77040.73
2019-03-03T11:37:45.263Z,77014.48
2019-03-03T11:40:31.805Z,77015.48
2019-03-03T11:43:29.518Z,77029.63
2019-03-03T11:46:18.825Z,77031.65
2019-03-03T11:49:10.592Z,77023.56
2019-03-03T11:52:03.308Z,77014.48
2019-03-03T11:54:48.439Z,77006.39
2019-03-03T11:57:22.560Z,77015.48
2019-03-03T12:00:20.169Z,77012.45
2019-03-03T12:03:08.997Z,77011.45
2019-03-03T12:05:56.364Z,77004.38
2019-03-03T12:08:48.400Z,76999.33
2019-03-03T12:11:42.641Z,76994.27
2019-03-03T12:14:31.276Z,76974.07
2019-03-03T12:17:19.718Z,76997.30
2019-03-03T12:20:07.260Z,76982.15
2019-03-03T12:22:56.257Z,76994.27
2019-03-03T12:25:34.690Z,76992.25
2019-03-03T12:28:38.432Z,76983.16
2019-03-03T12:31:38.814Z,76981.14
2019-03-03T12:34:21.138Z,76981.14
2019-03-03T12:37:15.348Z,76988.21
2019-03-03T12:39:52.605Z,76981.14
2019-03-03T12:42:29.451Z,76964.98
2019-03-03T12:45:08.029Z,76963.97
2019-03-03T12:47:53.881Z,76968.01
2019-03-03T12:50:41.017Z,76963.97
2019-03-03T12:53:35.732Z,76968.01
2019-03-03T12:56:14.746Z,76968.01
2019-03-03T12:58:54.106Z,76968.01
2019-03-03T13:01:55.914Z,76971.04
2019-03-03T13:04:45.109Z,76971.04
2019-03-03T13:07:42.639Z,76982.15
2019-03-03T13:10:29.440Z,76971.04
2019-03-03T13:13:16.154Z,76969.02
2019-03-03T13:16:03.027Z,76950.84
2019-03-03T13:19:07.163Z,76956.90
2019-03-03T13:22:07.872Z,76954.88
2019-03-03T13:24:53.313Z,76952.86
2019-03-03T13:27:32.461Z,76942.76
2019-03-03T13:30:32.667Z,76935.69
2019-03-03T13:33:18.292Z,76938.72
2019-03-03T13:36:09.266Z,76931.64
2019-03-03T13:38:56.502Z,76935.69
2019-03-03T13:41:38.606Z,76925.59
2019-03-03T13:44:07.806Z,76906.39
2019-03-03T13:46:37.392Z,76895.28
2019-03-03T13:49:07.027Z,76897.30
2019-03-03T13:51:36.596Z,76882.15
2019-03-03T13:54:06.709Z,76877.10
2019-03-03T13:56:36.434Z,76876.09
2019-03-03T13:59:05.578Z,76867.00
2019-03-03T14:01:34.988Z,76871.04
2019-03-03T14:04:04.187Z,76868.01
2019-03-03T14:06:33.441Z,76884.17
2019-03-03T14:09:02.845Z,76884.17
2019-03-03T14:11:32.200Z,76889.22
2019-03-03T14:14:01.807Z,76891.24
2019-03-03T14:16:31.554Z,76895.28
2019-03-03T14:19:01.358Z,76890.23
2019-03-03T14:21:30.856Z,76900.33
2019-03-03T14:24:00.490Z,76897.30
2019-03-03T14:26:29.692Z,76887.20
2019-03-03T14:28:59.809Z,76884.17
2019-03-03T14:31:29.021Z,76871.04
2019-03-03T14:33:58.585Z,76864.98
2019-03-03T14:36:27.788Z,76871.04
2019-03-03T14:38:57.305Z,76868.01
2019-03-03T14:41:26.834Z,76864.98
2019-03-03T14:43:56.074Z,76875.08
2019-03-03T14:46:25.285Z,76861.95
2019-03-03T14:48:54.876Z,76856.90
2019-03-03T14:51:24.143Z,76860.94
2019-03-03T14:53:53.821Z,76863.97
2019-03-03T14:56:23.003Z,76859.92
2019-03-03T14:58:52.186Z,76857.91
2019-03-03T15:01:22.066Z,76860.94
2019-03-03T15:03:51.243Z,76860.94
2019-03-03T15:06:24.458Z,76867.00
2019-03-03T15:08:52.118Z,76863.97
2019-03-03T15:11:21.302Z,76875.08
2019-03-03T15:13:51.216Z,76865.98
2019-03-03T15:16:20.628Z,76876.09
2019-03-03T15:18:50.112Z,76873.06
2019-03-03T15:21:25.086Z,76875.08
2019-03-03T15:23:51.204Z,76864.98
2019-03-03T15:26:20.681Z,76863.97
2019-03-03T15:28:50.202Z,76864.98
2019-03-03T15:31:19.782Z,76854.88
2019-03-03T15:33:49.331Z,76863.97
2019-03-03T15:36:18.612Z,76857.91
2019-03-03T15:38:48.707Z,76851.84
2019-03-03T15:41:17.950Z,76858.92
2019-03-03T15:43:47.815Z,76860.94
2019-03-03T15:46:16.982Z,76849.83
2019-03-03T15:48:46.148Z,76851.84
2019-03-03T15:51:15.334Z,76851.84
2019-03-03T15:53:44.536Z,76857.91
2019-03-03T15:56:14.778Z,76850.84
2019-03-03T15:58:44.204Z,76845.78
2019-03-03T16:01:16.232Z,76846.80
2019-03-03T16:03:45.524Z,76841.75
2019-03-03T16:06:15.137Z,76833.66
2019-03-03T16:08:44.396Z,76829.63
2019-03-03T16:11:14.018Z,76824.58
2019-03-03T16:13:43.249Z,76838.72
2019-03-03T16:16:12.736Z,76836.70
2019-03-03T16:18:41.915Z,76836.70
2019-03-03T16:21:11.523Z,76832.66
2019-03-03T16:23:41.796Z,76833.66
2019-03-03T16:26:11.805Z,76830.63
2019-03-03T16:28:41.277Z,76834.67
2019-03-03T16:31:10.841Z,76828.61
2019-03-03T16:33:40.726Z,76830.63
2019-03-03T16:36:09.905Z,76820.53
2019-03-03T16:38:39.847Z,76834.67
2019-03-03T16:41:09.022Z,76833.66
2019-03-03T16:43:38.208Z,76836.70
2019-03-03T16:46:07.603Z,76836.70
2019-03-03T16:48:37.051Z,76829.63
2019-03-03T16:51:06.344Z,76822.55
2019-03-03T16:53:35.515Z,76818.52
2019-03-03T16:56:05.087Z,76812.45
2019-03-03T16:58:34.247Z,76813.46
2019-03-03T17:01:04.171Z,76806.39
2019-03-03T17:03:33.689Z,76810.44
2019-03-03T17:06:02.855Z,76796.30
2019-03-03T17:08:32.585Z,76801.34
2019-03-03T17:11:02.099Z,76806.39
2019-03-03T17:13:31.563Z,76783.16
2019-03-03T17:16:01.091Z,76794.27
2019-03-03T17:18:30.690Z,76795.28
2019-03-03T17:21:00.209Z,76790.23
2019-03-03T17:23:29.374Z,76776.09
2019-03-03T17:25:58.622Z,76776.09
2019-03-03T17:28:27.834Z,76772.05
2019-03-03T17:30:57.834Z,76776.09
2019-03-03T17:33:27.005Z,76781.14
2019-03-03T17:35:56.240Z,76781.14
2019-03-03T17:38:25.687Z,76780.13
2019-03-03T17:40:55.143Z,76774.07
2019-03-03T17:43:24.674Z,76764.98
2019-03-03T17:45:53.874Z,76759.93
2019-03-03T17:48:23.026Z,76762.95
2019-03-03T17:50:52.230Z,76762.95
2019-03-03T17:53:21.435Z,76754.88
2019-03-03T17:55:50.860Z,76749.83
2019-03-03T17:58:21.520Z,76758.92
2019-03-03T18:00:51.088Z,76744.78
2019-03-03T18:03:20.725Z,76754.88
2019-03-03T18:05:50.642Z,76757.91
2019-03-03T18:08:20.180Z,76738.72
2019-03-03T18:10:49.657Z,76743.77
2019-03-03T18:13:19.159Z,76750.84
2019-03-03T18:15:48.434Z,76750.84
2019-03-03T18:18:18.318Z,76743.77
2019-03-03T18:20:47.923Z,76739.73
2019-03-03T18:23:18.266Z,76726.59
2019-03-03T18:25:47.434Z,76732.66
2019-03-03T18:28:16.667Z,76731.65
2019-03-03T18:30:45.864Z,76723.56
2019-03-03T18:33:15.537Z,76719.53
2019-03-03T18:35:45.220Z,76718.52
2019-03-03T18:38:15.129Z,76724.58
2019-03-03T18:40:45.053Z,76716.50
2019-03-03T18:43:14.351Z,76709.42
2019-03-03T18:45:43.549Z,76712.45
2019-03-03T18:48:12.852Z,76704.38
2019-03-03T18:50:42.010Z,76692.25
2019-03-03T18:53:11.161Z,76686.20
2019-03-03T18:55:40.686Z,76665.99
2019-03-03T18:58:09.904Z,76670.03
2019-03-03T19:00:39.387Z,76667.00
2019-03-03T19:03:08.540Z,76675.08
2019-03-03T19:05:37.757Z,76663.97
2019-03-03T19:08:06.955Z,76661.95
2019-03-03T19:10:36.133Z,76662.96
2019-03-03T19:13:07.015Z,76656.91
2019-03-03T19:15:36.669Z,76656.91
2019-03-03T19:18:06.414Z,76656.91
2019-03-03T19:20:35.989Z,76646.80
2019-03-03T19:23:07.676Z,76641.75
2019-03-03T19:25:38.872Z,76642.77
2019-03-03T19:28:08.487Z,76636.70
2019-03-03T19:30:38.281Z,76618.52
2019-03-03T19:33:11.408Z,76623.57
2019-03-03T19:35:41.246Z,76612.46
2019-03-03T19:38:10.940Z,76610.44
2019-03-03T19:40:41.506Z,76615.48
2019-03-03T19:43:11.706Z,76615.48
2019-03-03T19:45:40.992Z,76599.33
2019-03-03T19:48:10.720Z,76595.29
2019-03-03T19:50:40.285Z,76587.21
2019-03-03T19:53:11.129Z,76586.20
2019-03-03T19:55:40.826Z,76580.14
2019-03-03T19:58:12.416Z,76580.14
2019-03-03T20:00:42.052Z,76578.12
2019-03-03T20:03:11.858Z,76577.11
2019-03-03T20:05:42.024Z,76557.92
2019-03-03T20:08:13.110Z,76552.87
2019-03-03T20:10:42.686Z,76549.84
2019-03-03T20:13:12.225Z,76541.76
2019-03-03T20:15:42.860Z,76550.84
2019-03-03T20:18:13.774Z,76534.69
2019-03-03T20:20:43.765Z,76520.55
2019-03-03T20:23:13.592Z,76515.50
2019-03-03T20:25:43.184Z,76491.26
2019-03-03T20:28:14.352Z,76499.34
2019-03-03T20:30:45.642Z,76482.17
2019-03-03T20:33:14.848Z,76492.27
2019-03-03T20:35:44.890Z,76489.23
2019-03-03T20:38:14.367Z,76497.31
2019-03-03T20:40:44.378Z,76495.30
2019-03-03T20:43:14.213Z,76494.28
2019-03-03T20:45:43.680Z,76490.25
2019-03-03T20:48:13.158Z,76493.28
2019-03-03T20:50:44.654Z,76484.19
2019-03-03T20:53:16.857Z,76486.20
2019-03-03T20:55:46.193Z,76472.06
2019-03-03T20:58:15.709Z,76483.17
2019-03-03T21:00:45.344Z,76481.16
2019-03-03T21:03:14.670Z,76470.05
2019-03-03T21:05:43.847Z,76468.03
2019-03-03T21:08:13.118Z,76456.92
2019-03-03T21:10:42.520Z,76458.94
2019-03-03T21:13:12.195Z,76455.91
2019-03-03T21:15:41.597Z,76470.05
2019-03-03T21:18:11.203Z,76493.28
2019-03-03T21:20:40.838Z,76497.31
2019-03-03T21:23:10.357Z,76496.31
2019-03-03T21:25:39.806Z,76492.27
2019-03-03T21:28:09.133Z,76490.25
2019-03-03T21:30:39.425Z,76488.23
2019-03-03T21:33:09.199Z,76482.17
2019-03-03T21:35:38.925Z,76480.15
2019-03-03T21:38:08.721Z,76485.20
2019-03-03T21:40:38.170Z,76467.02
2019-03-03T21:43:07.626Z,76468.03
2019-03-03T21:45:37.435Z,76458.94
2019-03-03T21:48:07.753Z,76461.97
2019-03-03T21:50:37.547Z,76452.88
2019-03-03T21:53:08.374Z,76439.75
2019-03-03T21:55:40.034Z,76428.64
2019-03-03T21:58:09.420Z,76418.54
2019-03-03T22:00:39.579Z,76417.53
2019-03-03T22:03:08.982Z,76415.51
2019-03-03T22:05:39.502Z,76418.54
2019-03-03T22:08:09.021Z,76409.45
2019-03-03T22:10:39.665Z,76412.48
2019-03-03T22:13:12.253Z,76417.53
2019-03-03T22:15:41.569Z,76419.55
2019-03-03T22:18:31.502Z,76410.45
2019-03-03T22:21:00.875Z,76405.41
2019-03-03T22:23:30.655Z,76401.37
2019-03-03T22:26:00.425Z,76399.34
2019-03-03T22:28:30.667Z,76381.17
2019-03-03T22:31:00.492Z,76394.30
2019-03-03T22:33:30.804Z,76381.17
2019-03-03T22:36:00.122Z,76352.89
2019-03-03T22:38:30.008Z,76323.59
2019-03-03T22:40:59.291Z,76301.38
2019-03-03T22:43:28.816Z,76292.29
2019-03-03T22:45:58.327Z,76303.40
2019-03-03T22:48:27.515Z,76304.41
2019-03-03T22:50:57.148Z,76302.39
2019-03-03T22:53:26.328Z,76300.38
2019-03-03T22:55:55.649Z,76285.22
2019-03-03T22:58:24.886Z,76269.06
2019-03-03T23:01:30.992Z,76270.08
2019-03-03T23:04:47.051Z,76264.02
2019-03-03T23:07:41.291Z,76253.91
2019-03-03T23:10:43.198Z,76257.95
2019-03-03T23:13:49.657Z,76252.91
2019-03-03T23:16:40.661Z,76248.86
2019-03-03T23:20:06.383Z,76245.83
2019-03-03T23:23:03.158Z,76247.85
2019-03-03T23:25:50.400Z,76233.72
2019-03-03T23:28:20.846Z,76217.55
2019-03-03T23:30:51.145Z,76226.64
2019-03-03T23:33:20.596Z,76207.45
2019-03-03T23:35:50.173Z,76194.33
2019-03-03T23:38:19.653Z,76207.45
2019-03-03T23:40:49.206Z,76201.39
2019-03-03T23:43:18.353Z,76207.45
2019-03-03T23:45:47.892Z,76217.55
2019-03-03T23:48:17.069Z,76249.88
2019-03-03T23:50:46.326Z,76283.20
2019-03-03T23:53:15.591Z,76285.22
2019-03-03T23:55:44.822Z,76289.27
2019-03-03T23:58:14.430Z,76289.27
